createdAt,value
2017-07-11T00:00:17.207Z,21.00
2017-07-11T00:01:17.933Z,21.00
2017-07-11T00:02:18.662Z,18.00
2017-07-11T00:03:19.387Z,28.00
2017-07-11T00:04:20.115Z,19.00
2017-07-11T00:05:20.850Z,20.00
2017-07-11T00:06:21.566Z,20.00
2017-07-11T00:07:22.292Z,17.00
2017-07-11T00:08:23.022Z,19.00
2017-07-11T00:09:23.745Z,20.00
2017-07-11T00:10:24.473Z,25.00
2017-07-11T00:11:25.198Z,13.00
2017-07-11T00:12:25.922Z,20.00
2017-07-11T00:13:26.653Z,16.00
2017-07-11T00:14:27.375Z,20.00
2017-07-11T00:15:28.103Z,21.00
2017-07-11T00:16:28.826Z,20.00
2017-07-11T00:17:29.551Z,24.00
2017-07-11T00:18:30.281Z,19.00
2017-07-11T00:19:31.009Z,18.00
2017-07-11T00:20:31.735Z,25.00
2017-07-11T00:21:32.457Z,17.00
2017-07-11T00:22:33.187Z,32.00
2017-07-11T00:23:33.912Z,24.00
2017-07-11T00:24:34.641Z,24.00
2017-07-11T00:25:35.363Z,17.00
2017-07-11T00:26:36.088Z,26.00
2017-07-11T00:27:36.815Z,22.00
2017-07-11T00:28:37.540Z,19.00
2017-07-11T00:29:38.266Z,17.00
2017-07-11T00:30:38.989Z,34.00
2017-07-11T00:31:39.719Z,26.00
2017-07-11T00:32:40.442Z,19.00
2017-07-11T00:33:41.167Z,24.00
2017-07-11T00:34:41.894Z,28.00
2017-07-11T00:35:42.623Z,26.00
2017-07-11T00:36:43.344Z,21.00
2017-07-11T00:37:44.069Z,22.00
2017-07-11T00:38:44.798Z,30.00
2017-07-11T00:39:45.523Z,30.00
2017-07-11T00:40:46.248Z,31.00
2017-07-11T00:41:46.974Z,27.00
2017-07-11T00:42:47.699Z,26.00
2017-07-11T00:43:48.425Z,21.00
2017-07-11T00:44:49.151Z,22.00
2017-07-11T00:45:49.879Z,23.00
2017-07-11T00:46:50.606Z,21.00
2017-07-11T00:47:51.331Z,22.00
2017-07-11T00:48:52.060Z,26.00
2017-07-11T00:49:52.784Z,28.00
2017-07-11T00:50:53.508Z,25.00
2017-07-11T00:51:54.237Z,28.00
2017-07-11T00:52:54.963Z,26.00
2017-07-11T00:53:55.714Z,24.00
2017-07-11T00:54:56.435Z,26.00
2017-07-11T00:55:57.170Z,29.00
2017-07-11T00:56:57.889Z,25.00
2017-07-11T00:57:58.612Z,28.00
2017-07-11T00:58:59.359Z,25.00
2017-07-11T01:00:00.082Z,29.00
2017-07-11T01:01:00.806Z,26.00
2017-07-11T01:02:01.554Z,24.00
2017-07-11T01:03:02.276Z,29.00
2017-07-11T01:04:03.007Z,35.00
2017-07-11T01:05:03.731Z,22.00
2017-07-11T01:06:04.460Z,23.00
2017-07-11T01:07:05.189Z,31.00
2017-07-11T01:08:05.909Z,33.00
2017-07-11T01:09:06.636Z,27.00
2017-07-11T01:10:07.419Z,25.00
2017-07-11T01:11:08.089Z,35.00
2017-07-11T01:12:08.816Z,27.00
2017-07-11T01:13:09.542Z,28.00
2017-07-11T01:14:10.264Z,28.00
2017-07-11T01:15:10.989Z,37.00
2017-07-11T01:16:11.713Z,28.00
2017-07-11T01:17:12.441Z,29.00
2017-07-11T01:18:13.164Z,27.00
2017-07-11T01:19:13.891Z,30.00
2017-07-11T01:20:14.620Z,28.00
2017-07-11T01:21:15.349Z,27.00
2017-07-11T01:22:16.076Z,28.00
2017-07-11T01:23:16.807Z,25.00
2017-07-11T01:24:17.553Z,29.00
2017-07-11T01:25:18.278Z,35.00
2017-07-11T01:26:19.008Z,30.00
2017-07-11T01:27:19.736Z,28.00
2017-07-11T01:28:20.493Z,27.00
2017-07-11T01:29:21.247Z,31.00
2017-07-11T01:30:21.974Z,23.00
2017-07-11T01:31:22.707Z,24.00
2017-07-11T01:32:23.428Z,35.00
2017-07-11T01:33:24.160Z,27.00
2017-07-11T01:34:24.883Z,31.00
2017-07-11T01:35:25.632Z,42.00
2017-07-11T01:36:26.359Z,27.00
2017-07-11T01:37:27.085Z,34.00
2017-07-11T01:38:27.814Z,30.00
2017-07-11T01:39:28.542Z,29.00
2017-07-11T01:40:29.270Z,32.00
2017-07-11T01:41:29.997Z,30.00
2017-07-11T01:42:30.722Z,20.00
2017-07-11T01:43:31.451Z,29.00
2017-07-11T01:44:32.175Z,24.00
2017-07-11T01:45:32.907Z,29.00
2017-07-11T01:46:33.638Z,21.00
2017-07-11T01:47:34.364Z,29.00
2017-07-11T01:48:35.090Z,30.00
2017-07-11T01:49:35.815Z,20.00
2017-07-11T01:50:36.545Z,28.00
2017-07-11T01:51:37.273Z,23.00
2017-07-11T01:52:38.003Z,24.00
2017-07-11T01:53:38.729Z,29.00
2017-07-11T01:54:39.455Z,27.00
2017-07-11T01:55:40.183Z,23.00
2017-07-11T01:56:40.930Z,25.00
2017-07-11T01:57:41.661Z,26.00
2017-07-11T01:58:42.386Z,26.00
2017-07-11T01:59:43.115Z,26.00
2017-07-11T02:00:43.844Z,27.00
2017-07-11T02:01:44.568Z,28.00
2017-07-11T02:02:45.297Z,27.00
2017-07-11T02:03:46.032Z,25.00
2017-07-11T02:04:46.756Z,26.00
2017-07-11T02:05:47.505Z,28.00
2017-07-11T02:06:48.230Z,19.00
2017-07-11T02:07:48.960Z,32.00
2017-07-11T02:08:49.691Z,26.00
2017-07-11T02:09:50.420Z,22.00
2017-07-11T02:10:51.172Z,26.00
2017-07-11T02:11:51.898Z,26.00
2017-07-11T02:12:52.625Z,23.00
2017-07-11T02:13:53.353Z,26.00
2017-07-11T02:14:54.078Z,25.00
2017-07-11T02:15:54.810Z,24.00
2017-07-11T02:16:55.533Z,28.00
2017-07-11T02:17:56.260Z,28.00
2017-07-11T02:18:56.992Z,26.00
2017-07-11T02:19:57.712Z,22.00
2017-07-11T02:20:58.442Z,25.00
2017-07-11T02:21:59.169Z,22.00
2017-07-11T02:22:59.898Z,20.00
2017-07-11T02:24:00.628Z,31.00
2017-07-11T02:25:01.354Z,29.00
2017-07-11T02:26:02.082Z,24.00
2017-07-11T02:27:02.809Z,24.00
2017-07-11T02:28:03.540Z,26.00
2017-07-11T02:29:04.267Z,28.00
2017-07-11T02:30:04.996Z,25.00
2017-07-11T02:31:05.725Z,47.00
2017-07-11T02:32:06.452Z,21.00
2017-07-11T02:33:07.180Z,33.00
2017-07-11T02:34:07.909Z,18.00
2017-07-11T02:35:08.639Z,39.00
2017-07-11T02:36:09.390Z,23.00
2017-07-11T02:37:10.118Z,20.00
2017-07-11T02:38:10.847Z,20.00
2017-07-11T02:39:11.580Z,16.00
2017-07-11T02:40:12.302Z,22.00
2017-07-11T02:41:13.057Z,16.00
2017-07-11T02:42:13.783Z,29.00
2017-07-11T02:43:14.513Z,27.00
2017-07-11T02:44:15.242Z,24.00
2017-07-11T02:45:15.969Z,20.00
2017-07-11T02:46:16.698Z,28.00
2017-07-11T02:47:17.425Z,26.00
2017-07-11T02:48:18.150Z,26.00
2017-07-11T02:49:18.877Z,21.00
2017-07-11T02:50:19.604Z,22.00
2017-07-11T02:51:20.332Z,33.00
2017-07-11T02:52:21.058Z,20.00
2017-07-11T02:53:21.785Z,26.00
2017-07-11T02:54:22.516Z,18.00
2017-07-11T02:55:23.244Z,16.00
2017-07-11T02:56:23.972Z,26.00
2017-07-11T02:57:24.702Z,22.00
2017-07-11T02:58:25.433Z,23.00
2017-07-11T02:59:26.158Z,25.00
2017-07-11T03:00:26.889Z,24.00
2017-07-11T03:01:27.616Z,29.00
2017-07-11T03:02:28.345Z,22.00
2017-07-11T03:03:29.077Z,26.00
2017-07-11T03:04:29.803Z,21.00
2017-07-11T03:05:30.531Z,31.00
2017-07-11T03:06:31.264Z,29.00
2017-07-11T03:07:31.993Z,25.00
2017-07-11T03:08:32.723Z,21.00
2017-07-11T03:09:33.452Z,27.00
2017-07-11T03:10:34.179Z,29.00
2017-07-11T03:11:34.911Z,25.00
2017-07-11T03:12:35.641Z,26.00
2017-07-11T03:13:36.370Z,32.00
2017-07-11T03:14:37.123Z,23.00
2017-07-11T03:15:37.851Z,29.00
2017-07-11T03:16:38.582Z,31.00
2017-07-11T03:17:39.311Z,26.00
2017-07-11T03:18:40.039Z,22.00
2017-07-11T03:19:40.771Z,34.00
2017-07-11T03:20:41.495Z,28.00
2017-07-11T03:21:42.226Z,29.00
2017-07-11T03:22:42.958Z,25.00
2017-07-11T03:23:43.711Z,26.00
2017-07-11T03:24:44.440Z,23.00
2017-07-11T03:25:45.171Z,24.00
2017-07-11T03:26:45.905Z,20.00
2017-07-11T03:27:46.636Z,21.00
2017-07-11T03:28:47.360Z,34.00
2017-07-11T03:29:48.091Z,25.00
2017-07-11T03:30:48.824Z,25.00
2017-07-11T03:31:49.555Z,27.00
2017-07-11T03:34:05.509Z,19.00
2017-07-11T03:35:06.242Z,24.00
2017-07-11T03:36:06.969Z,24.00
2017-07-11T03:37:07.702Z,25.00
2017-07-11T03:38:08.433Z,26.00
2017-07-11T03:39:09.162Z,16.00
2017-07-11T03:40:09.890Z,23.00
2017-07-11T03:41:10.623Z,18.00
2017-07-11T03:42:11.356Z,28.00
2017-07-11T03:43:12.110Z,23.00
2017-07-11T03:44:12.843Z,24.00
2017-07-11T03:45:13.572Z,26.00
2017-07-11T03:46:14.306Z,29.00
2017-07-11T03:47:15.035Z,30.00
2017-07-11T03:48:15.763Z,23.00
2017-07-11T03:49:16.499Z,32.00
2017-07-11T03:50:17.252Z,28.00
2017-07-11T03:51:17.984Z,23.00
2017-07-11T03:52:18.717Z,27.00
2017-07-11T03:53:19.445Z,26.00
2017-07-11T03:54:20.177Z,26.00
2017-07-11T03:55:20.906Z,20.00
2017-07-11T03:56:21.635Z,19.00
2017-07-11T03:57:22.365Z,28.00
2017-07-11T03:58:23.097Z,21.00
2017-07-11T03:59:23.825Z,35.00
2017-07-11T04:00:24.556Z,24.00
2017-07-11T04:01:25.287Z,26.00
2017-07-11T04:02:26.019Z,27.00
2017-07-11T04:03:26.748Z,24.00
2017-07-11T04:04:27.481Z,36.00
2017-07-11T04:05:28.209Z,21.00
2017-07-11T04:06:28.938Z,25.00
2017-07-11T04:07:29.672Z,20.00
2017-07-11T04:08:30.403Z,24.00
2017-07-11T04:09:31.136Z,21.00
2017-07-11T04:10:31.866Z,23.00
2017-07-11T04:11:32.599Z,32.00
2017-07-11T04:12:33.355Z,38.00
2017-07-11T04:13:34.083Z,32.00
2017-07-11T04:14:34.815Z,16.00
2017-07-11T04:15:35.552Z,31.00
2017-07-11T04:16:36.283Z,17.00
2017-07-11T04:17:37.017Z,24.00
2017-07-11T04:18:37.751Z,23.00
2017-07-11T04:19:38.483Z,40.00
2017-07-11T04:20:39.214Z,23.00
2017-07-11T04:21:39.972Z,26.00
2017-07-11T04:22:40.702Z,23.00
2017-07-11T04:23:41.434Z,18.00
2017-07-11T04:24:42.168Z,22.00
2017-07-11T04:25:42.899Z,21.00
2017-07-11T04:26:43.633Z,46.00
2017-07-11T04:27:44.362Z,16.00
2017-07-11T04:28:45.095Z,23.00
2017-07-11T04:29:45.828Z,34.00
2017-07-11T04:30:46.558Z,22.00
2017-07-11T04:31:47.315Z,27.00
2017-07-11T04:32:48.075Z,22.00
2017-07-11T04:33:48.808Z,22.00
2017-07-11T04:34:49.536Z,23.00
2017-07-11T04:35:50.269Z,22.00
2017-07-11T04:36:51.000Z,24.00
2017-07-11T04:37:51.751Z,19.00
2017-07-11T04:38:52.484Z,16.00
2017-07-11T04:39:53.237Z,21.00
2017-07-11T04:40:53.993Z,22.00
2017-07-11T04:41:54.726Z,16.00
2017-07-11T04:42:55.462Z,23.00
2017-07-11T04:43:56.194Z,28.00
2017-07-11T04:44:56.931Z,26.00
2017-07-11T04:45:57.662Z,20.00
2017-07-11T04:46:58.395Z,23.00
2017-07-11T04:47:59.126Z,16.00
2017-07-11T04:48:59.860Z,18.00
2017-07-11T04:50:00.592Z,20.00
2017-07-11T04:51:01.323Z,24.00
2017-07-11T04:52:02.059Z,29.00
2017-07-11T04:53:02.790Z,19.00
2017-07-11T04:54:03.523Z,26.00
2017-07-11T04:55:04.257Z,23.00
2017-07-11T04:56:04.990Z,15.00
2017-07-11T04:57:05.725Z,23.00
2017-07-11T04:58:06.453Z,17.00
2017-07-11T04:59:07.186Z,11.00
2017-07-11T05:00:07.919Z,14.00
2017-07-11T05:01:08.654Z,19.00
2017-07-11T05:02:09.384Z,14.00
2017-07-11T05:03:10.120Z,20.00
2017-07-11T05:04:10.876Z,16.00
2017-07-11T05:05:11.610Z,13.00
2017-07-11T05:06:12.345Z,11.00
2017-07-11T05:07:13.078Z,14.00
2017-07-11T05:08:13.807Z,18.00
2017-07-11T05:09:14.542Z,13.00
2017-07-11T05:10:15.271Z,13.00
2017-07-11T05:11:16.003Z,13.00
2017-07-11T05:12:16.740Z,17.00
2017-07-11T05:13:17.474Z,16.00
2017-07-11T05:14:18.226Z,18.00
2017-07-11T05:15:18.942Z,17.00
2017-07-11T05:16:19.676Z,26.00
2017-07-11T05:17:20.412Z,20.00
2017-07-11T05:18:21.145Z,23.00
2017-07-11T05:19:21.873Z,24.00
2017-07-11T05:20:22.605Z,15.00
2017-07-11T05:21:23.336Z,10.00
2017-07-11T05:22:24.069Z,15.00
2017-07-11T05:23:24.869Z,19.00
2017-07-11T05:24:25.599Z,17.00
2017-07-11T05:25:26.337Z,23.00
2017-07-11T05:26:27.066Z,16.00
2017-07-11T05:27:27.808Z,19.00
2017-07-11T05:28:28.537Z,15.00
2017-07-11T05:29:29.275Z,15.00
2017-07-11T05:30:30.003Z,17.00
2017-07-11T05:31:30.741Z,20.00
2017-07-11T05:32:31.475Z,11.00
2017-07-11T05:33:32.224Z,9.00
2017-07-11T05:34:32.952Z,16.00
2017-07-11T05:35:33.683Z,14.00
2017-07-11T05:36:34.420Z,18.00
2017-07-11T05:37:35.153Z,17.00
2017-07-11T05:38:35.926Z,22.00
2017-07-11T05:39:36.659Z,12.00
2017-07-11T05:40:37.393Z,16.00
2017-07-11T05:41:38.125Z,17.00
2017-07-11T05:42:38.883Z,22.00
2017-07-11T05:43:39.614Z,13.00
2017-07-11T05:44:40.349Z,21.00
2017-07-11T05:45:41.082Z,15.00
2017-07-11T05:46:41.814Z,11.00
2017-07-11T05:47:42.548Z,13.00
2017-07-11T05:48:43.280Z,13.00
2017-07-11T05:49:44.011Z,16.00
2017-07-11T05:50:44.743Z,15.00
2017-07-11T05:51:45.477Z,12.00
2017-07-11T05:52:46.208Z,13.00
2017-07-11T05:53:46.941Z,14.00
2017-07-11T05:54:47.673Z,18.00
2017-07-11T05:55:48.404Z,11.00
2017-07-11T05:56:49.139Z,15.00
2017-07-11T05:57:49.872Z,22.00
2017-07-11T05:58:50.601Z,20.00
2017-07-11T05:59:51.334Z,14.00
2017-07-11T06:00:52.066Z,18.00
2017-07-11T06:01:52.807Z,13.00
2017-07-11T06:02:53.533Z,15.00
2017-07-11T06:03:54.265Z,19.00
2017-07-11T06:04:54.996Z,8.00
2017-07-11T06:05:55.729Z,14.00
2017-07-11T06:06:56.462Z,18.00
2017-07-11T06:07:57.198Z,16.00
2017-07-11T06:08:57.931Z,16.00
2017-07-11T06:09:58.690Z,10.00
2017-07-11T06:10:59.444Z,17.00
2017-07-11T06:12:00.173Z,18.00
2017-07-11T06:13:00.906Z,16.00
2017-07-11T06:14:01.662Z,12.00
2017-07-11T06:15:02.397Z,24.00
2017-07-11T06:16:03.133Z,16.00
2017-07-11T06:17:03.867Z,16.00
2017-07-11T06:18:04.601Z,15.00
2017-07-11T06:19:05.331Z,17.00
2017-07-11T06:20:06.089Z,16.00
2017-07-11T06:21:06.820Z,30.00
2017-07-11T06:22:07.551Z,22.00
2017-07-11T06:23:08.287Z,29.00
2017-07-11T06:24:09.021Z,28.00
2017-07-11T06:25:09.757Z,24.00
2017-07-11T06:26:10.496Z,18.00
2017-07-11T06:27:11.224Z,31.00
2017-07-11T06:28:11.961Z,32.00
2017-07-11T06:29:12.684Z,34.00
2017-07-11T06:30:13.418Z,34.00
2017-07-11T06:31:14.151Z,30.00
2017-07-11T06:32:14.886Z,44.00
2017-07-11T06:33:15.646Z,40.00
2017-07-11T06:34:16.406Z,29.00
2017-07-11T06:35:17.142Z,34.00
2017-07-11T06:36:17.876Z,29.00
2017-07-11T06:37:18.608Z,33.00
2017-07-11T06:38:19.348Z,29.00
2017-07-11T06:39:20.097Z,31.00
2017-07-11T06:40:20.831Z,33.00
2017-07-11T06:41:21.563Z,34.00
2017-07-11T06:42:22.323Z,29.00
2017-07-11T06:43:23.056Z,30.00
2017-07-11T06:44:23.790Z,44.00
2017-07-11T06:45:24.524Z,29.00
2017-07-11T06:46:25.258Z,40.00
2017-07-11T06:47:25.987Z,29.00
2017-07-11T06:48:26.718Z,32.00
2017-07-11T06:49:27.449Z,28.00
2017-07-11T06:50:28.185Z,40.00
2017-07-11T06:51:28.920Z,35.00
2017-07-11T06:52:29.657Z,33.00
2017-07-11T06:53:30.415Z,39.00
2017-07-11T06:54:31.145Z,17.00
2017-07-11T06:55:31.880Z,23.00
2017-07-11T06:56:32.610Z,41.00
2017-07-11T06:57:33.347Z,31.00
2017-07-11T06:58:34.078Z,40.00
2017-07-11T06:59:34.807Z,38.00
2017-07-11T07:00:35.541Z,37.00
2017-07-11T07:01:36.276Z,27.00
2017-07-11T07:02:37.011Z,18.00
2017-07-11T07:03:37.746Z,29.00
2017-07-11T07:04:38.473Z,36.00
2017-07-11T07:05:39.216Z,24.00
2017-07-11T07:06:39.944Z,35.00
2017-07-11T07:07:40.676Z,27.00
2017-07-11T07:08:41.410Z,40.00
2017-07-11T07:09:42.144Z,28.00
2017-07-11T07:10:42.875Z,28.00
2017-07-11T07:11:43.611Z,35.00
2017-07-11T07:12:44.370Z,34.00
2017-07-11T07:13:45.098Z,33.00
2017-07-11T07:14:45.832Z,25.00
2017-07-11T07:15:46.566Z,31.00
2017-07-11T07:16:47.323Z,27.00
2017-07-11T07:17:48.086Z,26.00
2017-07-11T07:18:48.815Z,30.00
2017-07-11T07:19:49.553Z,26.00
2017-07-11T07:20:50.288Z,31.00
2017-07-11T07:21:51.021Z,20.00
2017-07-11T07:22:51.756Z,24.00
2017-07-11T07:23:52.490Z,24.00
2017-07-11T07:24:53.223Z,34.00
2017-07-11T07:25:53.951Z,20.00
2017-07-11T07:26:54.684Z,48.00
2017-07-11T07:27:55.417Z,23.00
2017-07-11T07:28:56.147Z,23.00
2017-07-11T07:29:56.879Z,45.00
2017-07-11T07:30:57.616Z,29.00
2017-07-11T07:31:58.346Z,35.00
2017-07-11T07:32:59.081Z,26.00
2017-07-11T07:33:59.817Z,36.00
2017-07-11T07:35:00.546Z,31.00
2017-07-11T07:36:01.279Z,28.00
2017-07-11T07:37:02.012Z,26.00
2017-07-11T07:38:02.743Z,24.00
2017-07-11T07:39:03.478Z,35.00
2017-07-11T07:40:04.207Z,21.00
2017-07-11T07:41:04.946Z,42.00
2017-07-11T07:42:05.681Z,36.00
2017-07-11T07:43:06.440Z,27.00
2017-07-11T07:44:07.173Z,45.00
2017-07-11T07:45:07.909Z,35.00
2017-07-11T07:46:08.639Z,36.00
2017-07-11T07:47:09.370Z,33.00
2017-07-11T07:48:10.102Z,33.00
2017-07-11T07:49:10.838Z,40.00
2017-07-11T07:50:11.570Z,45.00
2017-07-11T07:51:12.305Z,39.00
2017-07-11T07:52:13.037Z,42.00
2017-07-11T07:53:13.771Z,47.00
2017-07-11T07:54:14.504Z,45.00
2017-07-11T07:55:15.237Z,56.00
2017-07-11T07:56:15.971Z,56.00
2017-07-11T07:57:16.707Z,48.00
2017-07-11T07:58:17.437Z,48.00
2017-07-11T07:59:18.169Z,68.00
2017-07-11T08:00:18.906Z,52.00
2017-07-11T08:01:19.639Z,51.00
2017-07-11T08:02:20.370Z,41.00
2017-07-11T08:03:21.103Z,56.00
2017-07-11T08:04:21.837Z,49.00
2017-07-11T08:05:22.571Z,70.00
2017-07-11T08:06:23.307Z,58.00
2017-07-11T08:07:24.041Z,70.00
2017-07-11T08:08:24.772Z,66.00
2017-07-11T08:09:25.510Z,70.00
2017-07-11T08:10:26.243Z,68.00
2017-07-11T08:11:26.976Z,66.00
2017-07-11T08:12:27.706Z,57.00
2017-07-11T08:13:28.439Z,73.00
2017-07-11T08:14:29.175Z,68.00
2017-07-11T08:15:29.910Z,85.00
2017-07-11T08:16:30.640Z,61.00
2017-07-11T08:17:31.376Z,67.00
2017-07-11T08:18:32.108Z,68.00
2017-07-11T08:19:32.844Z,54.00
2017-07-11T08:20:33.577Z,81.00
2017-07-11T08:21:34.311Z,65.00
2017-07-11T08:22:35.043Z,80.00
2017-07-11T08:23:35.774Z,70.00
2017-07-11T08:24:36.510Z,69.00
2017-07-11T08:25:37.242Z,93.00
2017-07-11T08:26:37.998Z,112.00
2017-07-11T08:27:38.729Z,99.00
2017-07-11T08:28:39.463Z,76.00
2017-07-11T08:29:40.196Z,75.00
2017-07-11T08:30:40.925Z,108.00
2017-07-11T08:31:41.660Z,77.00
2017-07-11T08:32:42.392Z,91.00
2017-07-11T08:33:43.130Z,80.00
2017-07-11T08:34:43.864Z,86.00
2017-07-11T08:35:44.597Z,82.00
2017-07-11T08:36:45.329Z,73.00
2017-07-11T08:37:46.064Z,74.00
2017-07-11T08:38:46.793Z,69.00
2017-07-11T08:39:47.527Z,66.00
2017-07-11T08:40:48.257Z,65.00
2017-07-11T08:41:48.995Z,66.00
2017-07-11T08:42:49.731Z,75.00
2017-07-11T08:43:50.465Z,59.00
2017-07-11T08:44:51.197Z,60.00
2017-07-11T08:45:51.930Z,97.00
2017-07-11T08:46:52.664Z,62.00
2017-07-11T08:47:53.392Z,86.00
2017-07-11T08:48:54.125Z,74.00
2017-07-11T08:49:54.883Z,62.00
2017-07-11T08:50:55.640Z,50.00
2017-07-11T08:51:56.375Z,82.00
2017-07-11T08:52:57.106Z,49.00
2017-07-11T08:53:57.865Z,57.00
2017-07-11T08:54:58.620Z,71.00
2017-07-11T08:55:59.355Z,60.00
2017-07-11T08:57:00.091Z,59.00
2017-07-11T08:58:00.820Z,51.00
2017-07-11T08:59:01.556Z,85.00
2017-07-11T09:00:02.289Z,66.00
2017-07-11T09:01:03.023Z,57.00
2017-07-11T09:02:03.753Z,68.00
2017-07-11T09:03:04.512Z,43.00
2017-07-11T09:04:05.248Z,49.00
2017-07-11T09:05:05.983Z,60.00
2017-07-11T09:06:06.718Z,56.00
2017-07-11T09:07:07.477Z,52.00
2017-07-11T09:08:08.231Z,60.00
2017-07-11T09:09:08.969Z,47.00
2017-07-11T09:10:09.705Z,63.00
2017-07-11T09:11:10.440Z,52.00
2017-07-11T09:12:11.170Z,47.00
2017-07-11T09:13:11.905Z,58.00
2017-07-11T09:14:12.642Z,55.00
2017-07-11T09:15:13.374Z,51.00
2017-07-11T09:16:14.108Z,42.00
2017-07-11T09:17:14.845Z,52.00
2017-07-11T09:18:15.581Z,84.00
2017-07-11T09:19:16.313Z,41.00
2017-07-11T09:20:17.050Z,50.00
2017-07-11T09:21:17.784Z,51.00
2017-07-11T09:22:18.517Z,61.00
2017-07-11T09:23:19.254Z,54.00
2017-07-11T09:24:19.987Z,46.00
2017-07-11T09:25:20.720Z,65.00
2017-07-11T09:26:21.456Z,68.00
2017-07-11T09:27:22.192Z,52.00
2017-07-11T09:28:22.931Z,70.00
2017-07-11T09:29:23.666Z,48.00
2017-07-11T09:30:24.427Z,52.00
2017-07-11T09:31:25.187Z,44.00
2017-07-11T09:32:25.925Z,59.00
2017-07-11T09:33:26.659Z,49.00
2017-07-11T09:34:27.416Z,53.00
2017-07-11T09:35:28.150Z,56.00
2017-07-11T09:36:28.907Z,74.00
2017-07-11T09:37:29.663Z,45.00
2017-07-11T09:38:30.394Z,46.00
2017-07-11T09:39:31.125Z,45.00
2017-07-11T09:40:31.863Z,55.00
2017-07-11T09:41:32.595Z,44.00
2017-07-11T09:42:33.329Z,51.00
2017-07-11T09:43:34.063Z,48.00
2017-07-11T09:44:34.793Z,45.00
2017-07-11T09:45:35.528Z,73.00
2017-07-11T09:46:36.265Z,56.00
2017-07-11T09:47:36.999Z,47.00
2017-07-11T09:48:37.734Z,55.00
2017-07-11T09:49:38.464Z,60.00
2017-07-11T09:50:39.200Z,55.00
2017-07-11T09:51:39.936Z,51.00
2017-07-11T09:52:40.668Z,39.00
2017-07-11T09:53:41.404Z,46.00
2017-07-11T09:54:42.140Z,56.00
2017-07-11T09:55:42.877Z,32.00
2017-07-11T09:56:43.612Z,43.00
2017-07-11T09:57:44.347Z,60.00
2017-07-11T09:58:45.085Z,32.00
2017-07-11T09:59:45.827Z,48.00
2017-07-11T10:00:46.555Z,29.00
2017-07-11T10:01:47.291Z,43.00
2017-07-11T10:02:48.030Z,41.00
2017-07-11T10:03:48.761Z,38.00
2017-07-11T10:04:49.498Z,34.00
2017-07-11T10:05:50.236Z,40.00
2017-07-11T10:06:50.974Z,34.00
2017-07-11T10:07:51.710Z,37.00
2017-07-11T10:08:52.445Z,38.00
2017-07-11T10:09:53.183Z,42.00
2017-07-11T10:10:53.918Z,37.00
2017-07-11T10:11:54.658Z,36.00
2017-07-11T10:12:55.418Z,41.00
2017-07-11T10:13:56.156Z,45.00
2017-07-11T10:14:56.915Z,32.00
2017-07-11T10:15:57.655Z,40.00
2017-07-11T10:16:58.391Z,35.00
2017-07-11T10:17:59.155Z,32.00
2017-07-11T10:18:59.913Z,52.00
2017-07-11T10:20:00.654Z,55.00
2017-07-11T10:21:01.417Z,43.00
2017-07-11T10:22:02.156Z,55.00
2017-07-11T10:23:02.895Z,28.00
2017-07-11T10:24:03.637Z,40.00
2017-07-11T10:25:04.401Z,37.00
2017-07-11T10:26:05.140Z,37.00
2017-07-11T10:27:05.875Z,30.00
2017-07-11T10:28:06.614Z,39.00
2017-07-11T10:29:07.353Z,38.00
2017-07-11T10:30:08.091Z,47.00
2017-07-11T10:31:08.828Z,35.00
2017-07-11T10:32:09.566Z,40.00
2017-07-11T10:33:10.306Z,42.00
2017-07-11T10:34:11.050Z,44.00
2017-07-11T10:35:11.795Z,37.00
2017-07-11T10:36:12.544Z,32.00
2017-07-11T10:37:13.294Z,36.00
2017-07-11T10:38:14.037Z,40.00
2017-07-11T10:39:14.786Z,20.00
2017-07-11T10:40:15.532Z,23.00
2017-07-11T10:41:16.277Z,30.00
2017-07-11T10:42:17.025Z,32.00
2017-07-11T10:43:17.777Z,31.00
2017-07-11T10:44:18.542Z,30.00
2017-07-11T10:45:19.290Z,25.00
2017-07-11T10:46:20.039Z,24.00
2017-07-11T10:47:20.806Z,24.00
2017-07-11T10:48:21.578Z,20.00
2017-07-11T10:49:22.328Z,15.00
2017-07-11T10:50:23.077Z,23.00
2017-07-11T10:51:23.823Z,19.00
2017-07-11T10:52:24.593Z,18.00
2017-07-11T10:53:25.342Z,31.00
2017-07-11T10:54:26.088Z,19.00
2017-07-11T10:55:26.836Z,17.00
2017-07-11T10:56:27.582Z,17.00
2017-07-11T10:57:28.334Z,14.00
2017-07-11T10:58:29.102Z,23.00
2017-07-11T10:59:29.849Z,14.00
2017-07-11T11:00:30.598Z,22.00
2017-07-11T11:01:31.344Z,17.00
2017-07-11T11:02:32.095Z,13.00
2017-07-11T11:03:32.846Z,15.00
2017-07-11T11:04:33.591Z,10.00
2017-07-11T11:05:34.338Z,13.00
2017-07-11T11:06:35.097Z,13.00
2017-07-11T11:07:35.847Z,12.00
2017-07-11T11:08:36.600Z,9.00
2017-07-11T11:09:37.351Z,13.00
2017-07-11T11:10:38.099Z,14.00
2017-07-11T11:11:38.845Z,20.00
2017-07-11T11:12:39.592Z,20.00
2017-07-11T11:13:40.344Z,20.00
2017-07-11T11:14:41.089Z,11.00
2017-07-11T11:15:41.838Z,18.00
2017-07-11T11:16:42.583Z,9.00
2017-07-11T11:17:43.330Z,23.00
2017-07-11T11:18:44.079Z,11.00
2017-07-11T11:19:44.827Z,12.00
2017-07-11T11:20:45.577Z,21.00
2017-07-11T11:21:46.328Z,18.00
2017-07-11T11:22:47.073Z,11.00
2017-07-11T11:23:47.830Z,9.00
2017-07-11T11:24:48.591Z,19.00
2017-07-11T11:25:49.348Z,12.00
2017-07-11T11:26:50.100Z,15.00
2017-07-11T11:27:50.853Z,9.00
2017-07-11T11:28:51.600Z,11.00
2017-07-11T11:29:52.354Z,18.00
2017-07-11T11:30:53.108Z,11.00
2017-07-11T11:31:53.861Z,17.00
2017-07-11T11:32:54.617Z,13.00
2017-07-11T11:33:55.368Z,16.00
2017-07-11T11:34:56.147Z,12.00
2017-07-11T11:35:56.902Z,21.00
2017-07-11T11:36:57.660Z,20.00
2017-07-11T11:37:58.414Z,13.00
2017-07-11T11:38:59.167Z,9.00
2017-07-11T11:39:59.917Z,12.00
2017-07-11T11:41:00.661Z,10.00
2017-07-11T11:42:01.413Z,10.00
2017-07-11T11:43:02.161Z,8.00
2017-07-11T11:44:02.910Z,7.00
2017-07-11T11:45:03.659Z,9.00
2017-07-11T11:46:04.408Z,9.00
2017-07-11T11:47:05.152Z,11.00
2017-07-11T11:48:05.906Z,18.00
2017-07-11T11:49:06.644Z,9.00
2017-07-11T11:50:07.391Z,7.00
2017-07-11T11:51:08.138Z,11.00
2017-07-11T11:52:08.886Z,8.00
2017-07-11T11:53:09.640Z,7.00
2017-07-11T11:54:10.403Z,9.00
2017-07-11T11:55:11.151Z,8.00
2017-07-11T11:56:11.907Z,12.00
2017-07-11T11:57:12.648Z,10.00
2017-07-11T11:58:13.395Z,10.00
2017-07-11T11:59:14.144Z,8.00
2017-07-11T12:00:14.891Z,8.00
2017-07-11T12:01:15.629Z,5.00
2017-07-11T12:02:16.374Z,5.00
2017-07-11T12:03:17.123Z,11.00
2017-07-11T12:04:17.867Z,10.00
2017-07-11T12:05:18.611Z,10.00
2017-07-11T12:06:19.357Z,10.00
2017-07-11T12:07:20.102Z,6.00
2017-07-11T12:08:20.843Z,6.00
2017-07-11T12:09:21.591Z,14.00
2017-07-11T12:10:22.333Z,13.00
2017-07-11T12:11:23.078Z,17.00
2017-07-11T12:12:23.847Z,5.00
2017-07-11T12:13:24.600Z,7.00
2017-07-11T12:14:25.342Z,8.00
2017-07-11T12:15:26.093Z,21.00
2017-07-11T12:16:26.838Z,8.00
2017-07-11T12:17:27.589Z,14.00
2017-07-11T12:18:28.404Z,6.00
2017-07-11T12:19:29.088Z,9.00
2017-07-11T12:20:29.839Z,14.00
2017-07-11T12:21:30.590Z,6.00
2017-07-11T12:22:31.361Z,5.00
2017-07-11T12:23:32.111Z,6.00
2017-07-11T12:24:32.878Z,7.00
2017-07-11T12:25:33.623Z,6.00
2017-07-11T12:26:34.374Z,12.00
2017-07-11T12:27:35.116Z,9.00
2017-07-11T12:28:35.860Z,8.00
2017-07-11T12:29:36.606Z,9.00
2017-07-11T12:30:37.348Z,7.00
2017-07-11T12:31:38.093Z,6.00
2017-07-11T12:32:38.838Z,4.00
2017-07-11T12:33:39.578Z,8.00
2017-07-11T12:34:40.325Z,5.00
2017-07-11T12:35:41.067Z,6.00
2017-07-11T12:36:41.809Z,5.00
2017-07-11T12:37:42.551Z,8.00
2017-07-11T12:38:43.294Z,7.00
2017-07-11T12:39:44.037Z,11.00
2017-07-11T12:40:44.776Z,6.00
2017-07-11T12:41:45.522Z,7.00
2017-07-11T12:42:46.265Z,13.00
2017-07-11T12:43:47.004Z,6.00
2017-07-11T12:44:47.749Z,5.00
2017-07-11T12:45:48.491Z,4.00
2017-07-11T12:46:49.229Z,6.00
2017-07-11T12:47:49.972Z,9.00
2017-07-11T12:48:50.717Z,8.00
2017-07-11T12:49:51.454Z,19.00
2017-07-11T12:50:52.195Z,8.00
2017-07-11T12:51:52.933Z,6.00
2017-07-11T12:52:53.676Z,8.00
2017-07-11T12:53:54.414Z,13.00
2017-07-11T12:54:55.160Z,7.00
2017-07-11T12:55:55.898Z,12.00
2017-07-11T12:56:56.645Z,4.00
2017-07-11T12:57:57.384Z,6.00
2017-07-11T12:58:58.134Z,12.00
2017-07-11T12:59:58.871Z,4.00
2017-07-11T13:00:59.609Z,6.00
2017-07-11T13:02:00.367Z,6.00
2017-07-11T13:03:01.110Z,8.00
2017-07-11T13:04:01.851Z,7.00
2017-07-11T13:05:02.591Z,3.00